sensor_id;sensor_type;location;lat;lon;timestamp;P1;durP1;ratioP1;P2;durP2;ratioP2
18399;SDS011;9326;49.468;11.008;2022-09-04T05:02:10;10.50;;;9.40;;
18399;SDS011;9326;49.468;11.008;2022-09-04T05:04:43;10.30;;;9.40;;
18399;SDS011;9326;49.468;11.008;2022-09-04T05:07:16;9.73;;;8.80;;
18399;SDS011;9326;49.468;11.008;2022-09-04T05:09:45;9.13;;;8.37;;
18399;SDS011;9326;49.468;11.008;2022-09-04T05:12:15;9.47;;;8.77;;
18399;SDS011;9326;49.468;11.008;2022-09-04T05:14:47;10.33;;;9.43;;
18399;SDS011;9326;49.468;11.008;2022-09-04T05:17:23;10.17;;;9.23;;
18399;SDS011;9326;49.468;11.008;2022-09-04T05:19:54;9.50;;;8.70;;
18399;SDS011;9326;49.468;11.008;2022-09-04T05:22:28;9.80;;;8.90;;
18399;SDS011;9326;49.468;11.008;2022-09-04T05:24:59;9.67;;;8.87;;
18399;SDS011;9326;49.468;11.008;2022-09-04T05:27:32;9.97;;;9.07;;
18399;SDS011;9326;49.468;11.008;2022-09-04T05:30:04;9.50;;;8.67;;
18399;SDS011;9326;49.468;11.008;2022-09-04T05:32:37;9.10;;;8.23;;
18399;SDS011;9326;49.468;11.008;2022-09-04T05:35:08;9.50;;;8.70;;
18399;SDS011;9326;49.468;11.008;2022-09-04T05:37:36;9.20;;;8.40;;
18399;SDS011;9326;49.468;11.008;2022-09-04T05:40:10;11.63;;;10.53;;
18399;SDS011;9326;49.468;11.008;2022-09-04T05:42:42;10.20;;;9.40;;
18399;SDS011;9326;49.468;11.008;2022-09-04T05:45:16;10.47;;;9.57;;
18399;SDS011;9326;49.468;11.008;2022-09-04T05:47:50;9.87;;;8.93;;
18399;SDS011;9326;49.468;11.008;2022-09-04T05:50:25;9.13;;;8.33;;
18399;SDS011;9326;49.468;11.008;2022-09-04T05:53:05;9.13;;;8.23;;
18399;SDS011;9326;49.468;11.008;2022-09-04T05:55:49;9.53;;;8.73;;
18399;SDS011;9326;49.468;11.008;2022-09-04T05:58:23;10.27;;;9.27;;
18399;SDS011;9326;49.468;11.008;2022-09-04T06:00:55;10.50;;;9.57;;
18399;SDS011;9326;49.468;11.008;2022-09-04T06:03:36;13.63;;;12.23;;
18399;SDS011;9326;49.468;11.008;2022-09-04T06:06:10;15.37;;;13.87;;
18399;SDS011;9326;49.468;11.008;2022-09-04T06:08:45;14.97;;;13.67;;
18399;SDS011;9326;49.468;11.008;2022-09-04T06:11:26;17.17;;;15.50;;
18399;SDS011;9326;49.468;11.008;2022-09-04T06:14:01;13.47;;;12.27;;
18399;SDS011;9326;49.468;11.008;2022-09-04T06:16:40;11.17;;;10.20;;
18399;SDS011;9326;49.468;11.008;2022-09-04T06:19:18;9.43;;;8.50;;
18399;SDS011;9326;49.468;11.008;2022-09-04T06:22:03;10.53;;;9.53;;
18399;SDS011;9326;49.468;11.008;2022-09-04T06:27:21;9.30;;;8.50;;
18399;SDS011;9326;49.468;11.008;2022-09-04T06:30:00;8.97;;;8.07;;
18399;SDS011;9326;49.468;11.008;2022-09-04T06:32:33;9.00;;;8.20;;
18399;SDS011;9326;49.468;11.008;2022-09-04T06:37:53;8.30;;;7.60;;
18399;SDS011;9326;49.468;11.008;2022-09-04T06:40:26;8.07;;;7.27;;
18399;SDS011;9326;49.468;11.008;2022-09-04T06:43:01;8.57;;;6.97;;
18399;SDS011;9326;49.468;11.008;2022-09-04T06:45:34;7.07;;;6.47;;
18399;SDS011;9326;49.468;11.008;2022-09-04T06:48:07;7.93;;;7.17;;
18399;SDS011;9326;49.468;11.008;2022-09-04T06:50:42;9.43;;;7.07;;
18399;SDS011;9326;49.468;11.008;2022-09-04T06:53:16;7.07;;;6.47;;
18399;SDS011;9326;49.468;11.008;2022-09-04T06:55:52;6.67;;;6.07;;
18399;SDS011;9326;49.468;11.008;2022-09-04T07:01:18;6.90;;;6.30;;
18399;SDS011;9326;49.468;11.008;2022-09-04T07:03:53;7.00;;;6.40;;
18399;SDS011;9326;49.468;11.008;2022-09-04T07:06:23;7.17;;;6.47;;
18399;SDS011;9326;49.468;11.008;2022-09-04T07:09:01;7.10;;;6.40;;
18399;SDS011;9326;49.468;11.008;2022-09-04T07:11:40;7.10;;;6.50;;
18399;SDS011;9326;49.468;11.008;2022-09-04T07:14:15;7.27;;;6.57;;
18399;SDS011;9326;49.468;11.008;2022-09-04T07:16:48;7.00;;;6.30;;
18399;SDS011;9326;49.468;11.008;2022-09-04T07:22:12;7.33;;;6.40;;
18399;SDS011;9326;49.468;11.008;2022-09-04T07:24:55;8.63;;;7.90;;
18399;SDS011;9326;49.468;11.008;2022-09-04T07:27:30;6.90;;;6.30;;
18399;SDS011;9326;49.468;11.008;2022-09-04T07:30:00;6.80;;;6.30;;
18399;SDS011;9326;49.468;11.008;2022-09-04T07:32:29;6.87;;;6.20;;
18399;SDS011;9326;49.468;11.008;2022-09-04T07:35:02;6.97;;;6.43;;
18399;SDS011;9326;49.468;11.008;2022-09-04T07:37:34;6.53;;;5.93;;
18399;SDS011;9326;49.468;11.008;2022-09-04T07:40:06;6.50;;;5.90;;
18399;SDS011;9326;49.468;11.008;2022-09-04T07:42:37;5.77;;;5.27;;
18399;SDS011;9326;49.468;11.008;2022-09-04T07:45:06;6.03;;;5.50;;
18399;SDS011;9326;49.468;11.008;2022-09-04T07:47:39;6.03;;;5.57;;
18399;SDS011;9326;49.468;11.008;2022-09-04T07:50:09;6.20;;;5.70;;
18399;SDS011;9326;49.468;11.008;2022-09-04T07:52:43;6.07;;;5.57;;
18399;SDS011;9326;49.468;11.008;2022-09-04T07:55:21;5.60;;;5.13;;
18399;SDS011;9326;49.468;11.008;2022-09-04T07:57:57;5.70;;;5.20;;
18399;SDS011;9326;49.468;11.008;2022-09-04T08:00:27;5.97;;;5.47;;
18399;SDS011;9326;49.468;11.008;2022-09-04T08:05:31;5.50;;;5.10;;
18399;SDS011;9326;49.468;11.008;2022-09-04T08:08:04;6.33;;;5.77;;
18399;SDS011;9326;49.468;11.008;2022-09-04T08:10:37;5.40;;;5.00;;
18399;SDS011;9326;49.468;11.008;2022-09-04T08:13:10;6.17;;;5.67;;
18399;SDS011;9326;49.468;11.008;2022-09-04T08:15:40;5.30;;;4.80;;
18399;SDS011;9326;49.468;11.008;2022-09-04T08:18:10;5.70;;;5.20;;
18399;SDS011;9326;49.468;11.008;2022-09-04T08:20:42;5.37;;;4.87;;
18399;SDS011;9326;49.468;11.008;2022-09-04T08:23:29;5.43;;;5.03;;
18399;SDS011;9326;49.468;11.008;2022-09-04T08:26:02;5.67;;;4.83;;
18399;SDS011;9326;49.468;11.008;2022-09-04T08:28:42;5.97;;;5.43;;
18399;SDS011;9326;49.468;11.008;2022-09-04T08:31:13;6.13;;;5.53;;
18399;SDS011;9326;49.468;11.008;2022-09-04T08:33:51;5.27;;;4.87;;
18399;SDS011;9326;49.468;11.008;2022-09-04T08:36:24;7.07;;;5.53;;
18399;SDS011;9326;49.468;11.008;2022-09-04T08:38:56;6.07;;;5.30;;
18399;SDS011;9326;49.468;11.008;2022-09-04T08:44:27;6.20;;;5.70;;
18399;SDS011;9326;49.468;11.008;2022-09-04T08:47:11;6.43;;;5.83;;
18399;SDS011;9326;49.468;11.008;2022-09-04T08:49:51;5.77;;;5.27;;
18399;SDS011;9326;49.468;11.008;2022-09-04T08:55:23;6.77;;;5.60;;
18399;SDS011;9326;49.468;11.008;2022-09-04T09:00:43;5.77;;;5.10;;
18399;SDS011;9326;49.468;11.008;2022-09-04T09:06:20;4.67;;;4.27;;
18399;SDS011;9326;49.468;11.008;2022-09-04T09:12:05;3.97;;;3.67;;
18399;SDS011;9326;49.468;11.008;2022-09-04T09:14:48;3.87;;;3.57;;
18399;SDS011;9326;49.468;11.008;2022-09-04T09:17:26;4.17;;;3.73;;
18399;SDS011;9326;49.468;11.008;2022-09-04T09:19:58;4.20;;;3.60;;
18399;SDS011;9326;49.468;11.008;2022-09-04T09:22:45;3.93;;;3.57;;
18399;SDS011;9326;49.468;11.008;2022-09-04T09:25:16;3.80;;;3.50;;
18399;SDS011;9326;49.468;11.008;2022-09-04T09:30:43;3.67;;;3.37;;
18399;SDS011;9326;49.468;11.008;2022-09-04T09:36:08;3.47;;;3.17;;
18399;SDS011;9326;49.468;11.008;2022-09-04T09:41:39;3.30;;;3.00;;
18399;SDS011;9326;49.468;11.008;2022-09-04T09:44:21;3.70;;;3.37;;
18399;SDS011;9326;49.468;11.008;2022-09-04T09:47:03;3.20;;;3.00;;
18399;SDS011;9326;49.468;11.008;2022-09-04T09:58:05;2.80;;;2.57;;
18399;SDS011;9326;49.468;11.008;2022-09-04T10:00:37;3.27;;;2.93;;
18399;SDS011;9326;49.468;11.008;2022-09-04T10:03:29;3.07;;;2.80;;
18399;SDS011;9326;49.468;11.008;2022-09-04T10:09:14;2.87;;;2.67;;
18399;SDS011;9326;49.468;11.008;2022-09-04T10:11:52;2.90;;;2.70;;
18399;SDS011;9326;49.468;11.008;2022-09-04T10:17:20;3.00;;;2.80;;
18399;SDS011;9326;49.468;11.008;2022-09-04T10:19:55;2.73;;;2.53;;
18399;SDS011;9326;49.468;11.008;2022-09-04T10:22:39;2.10;;;2.00;;
18399;SDS011;9326;49.468;11.008;2022-09-04T10:25:17;2.60;;;2.40;;
18399;SDS011;9326;49.468;11.008;2022-09-04T10:27:53;2.10;;;2.00;;
18399;SDS011;9326;49.468;11.008;2022-09-04T10:30:25;2.37;;;2.13;;
18399;SDS011;9326;49.468;11.008;2022-09-04T10:36:07;2.20;;;2.00;;
18399;SDS011;9326;49.468;11.008;2022-09-04T10:38:39;2.23;;;2.13;;
18399;SDS011;9326;49.468;11.008;2022-09-04T10:44:15;2.17;;;1.97;;
18399;SDS011;9326;49.468;11.008;2022-09-04T10:46:48;2.30;;;2.10;;
18399;SDS011;9326;49.468;11.008;2022-09-04T10:49:21;2.20;;;2.10;;
18399;SDS011;9326;49.468;11.008;2022-09-04T10:52:03;2.30;;;2.10;;
18399;SDS011;9326;49.468;11.008;2022-09-04T10:54:42;2.53;;;2.37;;
18399;SDS011;9326;49.468;11.008;2022-09-04T10:57:17;2.20;;;2.00;;
18399;SDS011;9326;49.468;11.008;2022-09-04T11:00:03;1.90;;;1.80;;
18399;SDS011;9326;49.468;11.008;2022-09-04T11:02:32;1.73;;;1.63;;
18399;SDS011;9326;49.468;11.008;2022-09-04T11:05:10;1.70;;;1.60;;
18399;SDS011;9326;49.468;11.008;2022-09-04T11:07:56;1.90;;;1.73;;
18399;SDS011;9326;49.468;11.008;2022-09-04T11:10:30;1.80;;;1.70;;
18399;SDS011;9326;49.468;11.008;2022-09-04T11:15:50;1.70;;;1.60;;
18399;SDS011;9326;49.468;11.008;2022-09-04T11:18:31;1.83;;;1.73;;
18399;SDS011;9326;49.468;11.008;2022-09-04T11:23:58;1.70;;;1.60;;
18399;SDS011;9326;49.468;11.008;2022-09-04T11:29:20;1.40;;;1.30;;
18399;SDS011;9326;49.468;11.008;2022-09-04T11:34:47;1.70;;;1.60;;
18399;SDS011;9326;49.468;11.008;2022-09-04T11:37:28;1.93;;;1.43;;
18399;SDS011;9326;49.468;11.008;2022-09-04T11:42:49;1.40;;;1.30;;
18399;SDS011;9326;49.468;11.008;2022-09-04T11:45:30;1.50;;;1.40;;
18399;SDS011;9326;49.468;11.008;2022-09-04T11:50:47;1.60;;;1.50;;
18399;SDS011;9326;49.468;11.008;2022-09-04T11:53:36;3.60;;;1.60;;
18399;SDS011;9326;49.468;11.008;2022-09-04T11:56:24;1.83;;;1.70;;
18399;SDS011;9326;49.468;11.008;2022-09-04T11:59:03;1.80;;;1.70;;
18399;SDS011;9326;49.468;11.008;2022-09-04T12:01:46;1.83;;;1.73;;
18399;SDS011;9326;49.468;11.008;2022-09-04T12:04:23;2.00;;;1.80;;
18399;SDS011;9326;49.468;11.008;2022-09-04T12:06:59;1.70;;;1.60;;
18399;SDS011;9326;49.468;11.008;2022-09-04T12:09:45;1.70;;;1.60;;
18399;SDS011;9326;49.468;11.008;2022-09-04T12:12:19;2.00;;;1.60;;
18399;SDS011;9326;49.468;11.008;2022-09-04T12:17:40;1.70;;;1.60;;
18399;SDS011;9326;49.468;11.008;2022-09-04T12:20:29;1.67;;;1.40;;
18399;SDS011;9326;49.468;11.008;2022-09-04T12:23:09;1.60;;;1.50;;
18399;SDS011;9326;49.468;11.008;2022-09-04T12:31:19;1.50;;;1.40;;
18399;SDS011;9326;49.468;11.008;2022-09-04T12:33:54;1.50;;;1.40;;
18399;SDS011;9326;49.468;11.008;2022-09-04T12:41:48;1.50;;;1.40;;
18399;SDS011;9326;49.468;11.008;2022-09-04T12:44:20;1.60;;;1.50;;
18399;SDS011;9326;49.468;11.008;2022-09-04T12:46:54;1.60;;;1.47;;
18399;SDS011;9326;49.468;11.008;2022-09-04T12:49:43;1.43;;;1.33;;
18399;SDS011;9326;49.468;11.008;2022-09-04T12:52:18;1.30;;;1.30;;
18399;SDS011;9326;49.468;11.008;2022-09-04T12:54:49;1.90;;;1.80;;
18399;SDS011;9326;49.468;11.008;2022-09-04T12:57:22;1.40;;;1.30;;
18399;SDS011;9326;49.468;11.008;2022-09-04T12:59:59;1.60;;;1.50;;
18399;SDS011;9326;49.468;11.008;2022-09-04T13:02:32;1.47;;;1.37;;
18399;SDS011;9326;49.468;11.008;2022-09-04T13:05:08;1.50;;;1.40;;
18399;SDS011;9326;49.468;11.008;2022-09-04T13:07:41;1.37;;;1.27;;
18399;SDS011;9326;49.468;11.008;2022-09-04T13:10:15;1.77;;;1.67;;
18399;SDS011;9326;49.468;11.008;2022-09-04T13:12:47;1.87;;;1.70;;
18399;SDS011;9326;49.468;11.008;2022-09-04T13:15:21;1.40;;;1.30;;
18399;SDS011;9326;49.468;11.008;2022-09-04T13:17:52;1.10;;;1.10;;
18399;SDS011;9326;49.468;11.008;2022-09-04T13:20:24;1.30;;;1.20;;
18399;SDS011;9326;49.468;11.008;2022-09-04T13:22:56;1.23;;;1.17;;
18399;SDS011;9326;49.468;11.008;2022-09-04T13:25:30;1.00;;;1.00;;
18399;SDS011;9326;49.468;11.008;2022-09-04T13:28:02;1.13;;;1.00;;
18399;SDS011;9326;49.468;11.008;2022-09-04T13:30:30;0.90;;;0.90;;
18399;SDS011;9326;49.468;11.008;2022-09-04T13:33:00;1.77;;;0.97;;
18399;SDS011;9326;49.468;11.008;2022-09-04T13:35:40;1.37;;;1.27;;
18399;SDS011;9326;49.468;11.008;2022-09-04T13:38:20;1.10;;;1.10;;
18399;SDS011;9326;49.468;11.008;2022-09-04T13:41:06;1.40;;;1.30;;
18399;SDS011;9326;49.468;11.008;2022-09-04T13:43:44;1.10;;;1.10;;
18399;SDS011;9326;49.468;11.008;2022-09-04T13:46:17;1.17;;;1.13;;
18399;SDS011;9326;49.468;11.008;2022-09-04T13:48:48;1.10;;;1.10;;
18399;SDS011;9326;49.468;11.008;2022-09-04T13:51:19;1.47;;;1.10;;
18399;SDS011;9326;49.468;11.008;2022-09-04T13:53:56;1.30;;;1.20;;
18399;SDS011;9326;49.468;11.008;2022-09-04T13:56:27;1.40;;;1.30;;
18399;SDS011;9326;49.468;11.008;2022-09-04T13:58:56;1.50;;;1.40;;
18399;SDS011;9326;49.468;11.008;2022-09-04T14:01:25;1.37;;;1.30;;
18399;SDS011;9326;49.468;11.008;2022-09-04T14:03:54;1.40;;;1.30;;
18399;SDS011;9326;49.468;11.008;2022-09-04T14:06:25;1.33;;;1.10;;
18399;SDS011;9326;49.468;11.008;2022-09-04T14:08:53;1.30;;;1.20;;
18399;SDS011;9326;49.468;11.008;2022-09-04T14:11:25;1.50;;;1.40;;
18399;SDS011;9326;49.468;11.008;2022-09-04T14:14:00;1.30;;;1.20;;
18399;SDS011;9326;49.468;11.008;2022-09-04T14:16:36;2.27;;;1.63;;
18399;SDS011;9326;49.468;11.008;2022-09-04T14:19:14;1.40;;;1.30;;
18399;SDS011;9326;49.468;11.008;2022-09-04T14:21:53;1.40;;;1.40;;
18399;SDS011;9326;49.468;11.008;2022-09-04T14:24:23;1.63;;;1.20;;
18399;SDS011;9326;49.468;11.008;2022-09-04T14:26:58;1.50;;;1.40;;
18399;SDS011;9326;49.468;11.008;2022-09-04T14:29:30;1.50;;;1.40;;
18399;SDS011;9326;49.468;11.008;2022-09-04T14:32:03;1.80;;;1.70;;
18399;SDS011;9326;49.468;11.008;2022-09-04T14:34:36;1.93;;;1.30;;
18399;SDS011;9326;49.468;11.008;2022-09-04T14:37:10;1.70;;;1.60;;
18399;SDS011;9326;49.468;11.008;2022-09-04T14:39:41;2.43;;;1.63;;
18399;SDS011;9326;49.468;11.008;2022-09-04T14:42:19;1.30;;;1.30;;
18399;SDS011;9326;49.468;11.008;2022-09-04T14:44:56;1.10;;;1.10;;
18399;SDS011;9326;49.468;11.008;2022-09-04T14:47:28;1.20;;;1.13;;
18399;SDS011;9326;49.468;11.008;2022-09-04T14:49:56;1.30;;;1.20;;
18399;SDS011;9326;49.468;11.008;2022-09-04T14:52:27;1.43;;;1.33;;
18399;SDS011;9326;49.468;11.008;2022-09-04T14:54:57;2.20;;;1.40;;
18399;SDS011;9326;49.468;11.008;2022-09-04T14:57:26;1.40;;;1.30;;
18399;SDS011;9326;49.468;11.008;2022-09-04T14:59:56;1.77;;;1.23;;
18399;SDS011;9326;49.468;11.008;2022-09-04T15:02:27;1.20;;;1.20;;
18399;SDS011;9326;49.468;11.008;2022-09-04T15:04:57;1.70;;;1.30;;
18399;SDS011;9326;49.468;11.008;2022-09-04T15:07:30;1.10;;;1.10;;
18399;SDS011;9326;49.468;11.008;2022-09-04T15:10:04;1.50;;;1.40;;
18399;SDS011;9326;49.468;11.008;2022-09-04T15:12:35;3.00;;;1.40;;
18399;SDS011;9326;49.468;11.008;2022-09-04T15:15:04;1.37;;;1.27;;
18399;SDS011;9326;49.468;11.008;2022-09-04T15:17:32;1.30;;;1.30;;
18399;SDS011;9326;49.468;11.008;2022-09-04T15:20:03;1.40;;;1.30;;
18399;SDS011;9326;49.468;11.008;2022-09-04T15:22:37;1.10;;;1.00;;
18399;SDS011;9326;49.468;11.008;2022-09-04T15:25:07;1.40;;;1.30;;
18399;SDS011;9326;49.468;11.008;2022-09-04T15:27:37;1.40;;;1.30;;
18399;SDS011;9326;49.468;11.008;2022-09-04T15:30:10;1.63;;;1.20;;
18399;SDS011;9326;49.468;11.008;2022-09-04T15:32:42;1.37;;;1.27;;
18399;SDS011;9326;49.468;11.008;2022-09-04T15:35:13;1.40;;;1.30;;
18399;SDS011;9326;49.468;11.008;2022-09-04T15:37:43;1.30;;;1.10;;
18399;SDS011;9326;49.468;11.008;2022-09-04T15:40:13;1.77;;;1.40;;
18399;SDS011;9326;49.468;11.008;2022-09-04T15:42:51;1.20;;;1.20;;
18399;SDS011;9326;49.468;11.008;2022-09-04T15:45:21;1.07;;;1.07;;
18399;SDS011;9326;49.468;11.008;2022-09-04T15:50:35;1.30;;;1.20;;
18399;SDS011;9326;49.468;11.008;2022-09-04T15:53:11;1.60;;;1.50;;
18399;SDS011;9326;49.468;11.008;2022-09-04T15:55:40;1.30;;;1.20;;
18399;SDS011;9326;49.468;11.008;2022-09-04T15:58:11;1.50;;;1.40;;
18399;SDS011;9326;49.468;11.008;2022-09-04T16:00:52;1.30;;;1.20;;
18399;SDS011;9326;49.468;11.008;2022-09-04T16:03:21;1.10;;;1.10;;
18399;SDS011;9326;49.468;11.008;2022-09-04T16:05:52;2.27;;;1.20;;
18399;SDS011;9326;49.468;11.008;2022-09-04T16:08:23;1.30;;;1.20;;
18399;SDS011;9326;49.468;11.008;2022-09-04T16:10:54;1.27;;;1.17;;
18399;SDS011;9326;49.468;11.008;2022-09-04T16:16:09;1.43;;;1.37;;
18399;SDS011;9326;49.468;11.008;2022-09-04T16:18:39;1.37;;;1.20;;
18399;SDS011;9326;49.468;11.008;2022-09-04T16:21:11;1.40;;;1.20;;
18399;SDS011;9326;49.468;11.008;2022-09-04T16:23:43;1.40;;;1.30;;
18399;SDS011;9326;49.468;11.008;2022-09-04T16:26:11;1.27;;;1.17;;
18399;SDS011;9326;49.468;11.008;2022-09-04T16:28:40;1.20;;;1.20;;
18399;SDS011;9326;49.468;11.008;2022-09-04T16:31:10;1.20;;;1.20;;
18399;SDS011;9326;49.468;11.008;2022-09-04T16:33:38;1.40;;;1.30;;
18399;SDS011;9326;49.468;11.008;2022-09-04T16:36:14;1.20;;;1.20;;
18399;SDS011;9326;49.468;11.008;2022-09-04T16:38:42;1.80;;;1.23;;
18399;SDS011;9326;49.468;11.008;2022-09-04T16:41:14;1.30;;;1.20;;
18399;SDS011;9326;49.468;11.008;2022-09-04T16:44:04;2.27;;;1.50;;
18399;SDS011;9326;49.468;11.008;2022-09-04T16:46:32;1.50;;;1.40;;
18399;SDS011;9326;49.468;11.008;2022-09-04T16:49:02;1.77;;;1.40;;
18399;SDS011;9326;49.468;11.008;2022-09-04T16:51:32;1.60;;;1.50;;
18399;SDS011;9326;49.468;11.008;2022-09-04T16:54:01;2.00;;;1.80;;
18399;SDS011;9326;49.468;11.008;2022-09-04T16:56:35;1.67;;;1.57;;
18399;SDS011;9326;49.468;11.008;2022-09-04T16:59:09;1.70;;;1.60;;
18399;SDS011;9326;49.468;11.008;2022-09-04T17:01:43;1.70;;;1.60;;
18399;SDS011;9326;49.468;11.008;2022-09-04T17:04:16;1.80;;;1.70;;
18399;SDS011;9326;49.468;11.008;2022-09-04T17:06:48;1.67;;;1.57;;
18399;SDS011;9326;49.468;11.008;2022-09-04T17:09:27;1.70;;;1.60;;
18399;SDS011;9326;49.468;11.008;2022-09-04T17:11:59;1.87;;;1.77;;
18399;SDS011;9326;49.468;11.008;2022-09-04T17:14:32;1.70;;;1.60;;
18399;SDS011;9326;49.468;11.008;2022-09-04T17:17:04;2.17;;;1.70;;
18399;SDS011;9326;49.468;11.008;2022-09-04T17:19:32;1.97;;;1.87;;
18399;SDS011;9326;49.468;11.008;2022-09-04T17:22:10;1.90;;;1.80;;
18399;SDS011;9326;49.468;11.008;2022-09-04T17:25:02;2.93;;;1.67;;
18399;SDS011;9326;49.468;11.008;2022-09-04T17:27:36;2.97;;;1.77;;
18399;SDS011;9326;49.468;11.008;2022-09-04T17:30:08;2.23;;;1.90;;
18399;SDS011;9326;49.468;11.008;2022-09-04T17:32:41;2.03;;;1.93;;
18399;SDS011;9326;49.468;11.008;2022-09-04T17:35:15;2.20;;;2.07;;
18399;SDS011;9326;49.468;11.008;2022-09-04T17:37:47;2.00;;;1.90;;
18399;SDS011;9326;49.468;11.008;2022-09-04T17:40:16;3.40;;;2.40;;
18399;SDS011;9326;49.468;11.008;2022-09-04T17:42:49;2.70;;;2.17;;
18399;SDS011;9326;49.468;11.008;2022-09-04T17:45:22;2.30;;;2.10;;
18399;SDS011;9326;49.468;11.008;2022-09-04T17:47:58;2.60;;;2.40;;
18399;SDS011;9326;49.468;11.008;2022-09-04T17:50:26;2.60;;;2.00;;
18399;SDS011;9326;49.468;11.008;2022-09-04T17:52:55;2.60;;;2.40;;
18399;SDS011;9326;49.468;11.008;2022-09-04T17:55:23;2.40;;;2.20;;
18399;SDS011;9326;49.468;11.008;2022-09-04T17:57:54;2.10;;;2.00;;
18399;SDS011;9326;49.468;11.008;2022-09-04T18:00:24;2.40;;;2.20;;
18399;SDS011;9326;49.468;11.008;2022-09-04T18:02:55;2.67;;;2.30;;
18399;SDS011;9326;49.468;11.008;2022-09-04T18:05:24;2.10;;;2.00;;
18399;SDS011;9326;49.468;11.008;2022-09-04T18:07:53;2.87;;;2.67;;
18399;SDS011;9326;49.468;11.008;2022-09-04T18:10:23;2.60;;;2.40;;
18399;SDS011;9326;49.468;11.008;2022-09-04T18:12:57;2.50;;;2.30;;
18399;SDS011;9326;49.468;11.008;2022-09-04T18:15:29;3.10;;;2.80;;
18399;SDS011;9326;49.468;11.008;2022-09-04T18:17:58;2.90;;;2.70;;
18399;SDS011;9326;49.468;11.008;2022-09-04T18:20:27;3.50;;;3.20;;
18399;SDS011;9326;49.468;11.008;2022-09-04T18:23:14;4.10;;;3.70;;
18399;SDS011;9326;49.468;11.008;2022-09-04T18:25:43;3.50;;;3.20;;
18399;SDS011;9326;49.468;11.008;2022-09-04T18:28:17;4.50;;;3.27;;
18399;SDS011;9326;49.468;11.008;2022-09-04T18:30:50;3.70;;;3.40;;
18399;SDS011;9326;49.468;11.008;2022-09-04T18:33:21;4.63;;;3.00;;
18399;SDS011;9326;49.468;11.008;2022-09-04T18:35:50;3.43;;;3.13;;
18399;SDS011;9326;49.468;11.008;2022-09-04T18:38:25;4.67;;;4.27;;
18399;SDS011;9326;49.468;11.008;2022-09-04T18:40:53;5.67;;;5.17;;
18399;SDS011;9326;49.468;11.008;2022-09-04T18:43:25;5.27;;;4.70;;
18399;SDS011;9326;49.468;11.008;2022-09-04T18:45:55;5.23;;;3.60;;
18399;SDS011;9326;49.468;11.008;2022-09-04T18:48:23;4.17;;;3.77;;
18399;SDS011;9326;49.468;11.008;2022-09-04T18:50:51;3.80;;;3.50;;
18399;SDS011;9326;49.468;11.008;2022-09-04T18:53:23;4.40;;;4.00;;
18399;SDS011;9326;49.468;11.008;2022-09-04T18:55:52;8.57;;;6.47;;
18399;SDS011;9326;49.468;11.008;2022-09-04T18:58:33;6.23;;;5.63;;
18399;SDS011;9326;49.468;11.008;2022-09-04T19:01:04;5.53;;;5.10;;
18399;SDS011;9326;49.468;11.008;2022-09-04T19:03:36;6.53;;;6.00;;
18399;SDS011;9326;49.468;11.008;2022-09-04T19:06:08;7.10;;;6.40;;
18399;SDS011;9326;49.468;11.008;2022-09-04T19:08:36;6.97;;;6.47;;
18399;SDS011;9326;49.468;11.008;2022-09-04T19:11:07;7.13;;;6.53;;
18399;SDS011;9326;49.468;11.008;2022-09-04T19:13:37;8.37;;;7.57;;
18399;SDS011;9326;49.468;11.008;2022-09-04T19:16:10;9.23;;;8.33;;
18399;SDS011;9326;49.468;11.008;2022-09-04T19:18:43;9.77;;;8.87;;
18399;SDS011;9326;49.468;11.008;2022-09-04T19:21:17;11.60;;;10.30;;
18399;SDS011;9326;49.468;11.008;2022-09-04T19:23:48;11.00;;;9.63;;
18399;SDS011;9326;49.468;11.008;2022-09-04T19:26:18;8.43;;;7.63;;
18399;SDS011;9326;49.468;11.008;2022-09-04T19:28:48;7.87;;;7.07;;
18399;SDS011;9326;49.468;11.008;2022-09-04T19:31:17;7.83;;;7.13;;
18399;SDS011;9326;49.468;11.008;2022-09-04T19:33:46;7.17;;;6.47;;
18399;SDS011;9326;49.468;11.008;2022-09-04T19:36:18;7.33;;;6.63;;
18399;SDS011;9326;49.468;11.008;2022-09-04T19:38:47;6.70;;;6.10;;
18399;SDS011;9326;49.468;11.008;2022-09-04T19:41:16;7.27;;;6.17;;
18399;SDS011;9326;49.468;11.008;2022-09-04T19:43:46;7.00;;;6.23;;
18399;SDS011;9326;49.468;11.008;2022-09-04T19:46:21;5.30;;;4.77;;
18399;SDS011;9326;49.468;11.008;2022-09-04T19:48:51;5.33;;;4.83;;
18399;SDS011;9326;49.468;11.008;2022-09-04T19:51:26;6.50;;;5.70;;
18399;SDS011;9326;49.468;11.008;2022-09-04T19:53:56;6.57;;;5.77;;
18399;SDS011;9326;49.468;11.008;2022-09-04T19:56:28;6.63;;;5.43;;
18399;SDS011;9326;49.468;11.008;2022-09-04T19:58:57;5.50;;;5.00;;
18399;SDS011;9326;49.468;11.008;2022-09-04T20:01:28;5.63;;;5.20;;
18399;SDS011;9326;49.468;11.008;2022-09-04T20:03:57;6.27;;;5.67;;
18399;SDS011;9326;49.468;11.008;2022-09-04T20:06:26;5.77;;;5.20;;
18399;SDS011;9326;49.468;11.008;2022-09-04T20:08:57;6.70;;;5.20;;
18399;SDS011;9326;49.468;11.008;2022-09-04T20:11:26;5.00;;;4.60;;
18399;SDS011;9326;49.468;11.008;2022-09-04T20:13:57;5.50;;;4.97;;
18399;SDS011;9326;49.468;11.008;2022-09-04T20:16:26;5.13;;;4.73;;
18399;SDS011;9326;49.468;11.008;2022-09-04T20:18:59;5.10;;;4.67;;
18399;SDS011;9326;49.468;11.008;2022-09-04T20:21:37;4.90;;;4.57;;
18399;SDS011;9326;49.468;11.008;2022-09-04T20:24:09;5.10;;;4.70;;
18399;SDS011;9326;49.468;11.008;2022-09-04T20:26:41;6.27;;;5.60;;
18399;SDS011;9326;49.468;11.008;2022-09-04T20:29:12;5.87;;;5.13;;
18399;SDS011;9326;49.468;11.008;2022-09-04T20:31:43;5.67;;;5.17;;
18399;SDS011;9326;49.468;11.008;2022-09-04T20:34:19;6.30;;;5.70;;
18399;SDS011;9326;49.468;11.008;2022-09-04T20:36:51;5.87;;;5.27;;
18399;SDS011;9326;49.468;11.008;2022-09-04T20:39:20;6.67;;;5.07;;
18399;SDS011;9326;49.468;11.008;2022-09-04T20:41:50;5.47;;;4.97;;
18399;SDS011;9326;49.468;11.008;2022-09-04T20:44:21;5.77;;;5.27;;
18399;SDS011;9326;49.468;11.008;2022-09-04T20:46:51;5.77;;;5.27;;
18399;SDS011;9326;49.468;11.008;2022-09-04T20:49:23;7.20;;;5.50;;
18399;SDS011;9326;49.468;11.008;2022-09-04T20:51:53;6.13;;;5.50;;
18399;SDS011;9326;49.468;11.008;2022-09-04T20:54:31;6.20;;;5.60;;
18399;SDS011;9326;49.468;11.008;2022-09-04T20:57:05;6.63;;;5.60;;
18399;SDS011;9326;49.468;11.008;2022-09-04T20:59:36;6.07;;;5.57;;
18399;SDS011;9326;49.468;11.008;2022-09-04T21:02:09;6.07;;;5.43;;
18399;SDS011;9326;49.468;11.008;2022-09-04T21:04:41;5.90;;;5.40;;
18399;SDS011;9326;49.468;11.008;2022-09-04T21:07:15;5.70;;;5.20;;
18399;SDS011;9326;49.468;11.008;2022-09-04T21:09:50;7.20;;;5.60;;
18399;SDS011;9326;49.468;11.008;2022-09-04T21:12:22;5.97;;;5.37;;
18399;SDS011;9326;49.468;11.008;2022-09-04T21:14:52;6.63;;;5.20;;
18399;SDS011;9326;49.468;11.008;2022-09-04T21:17:28;5.57;;;5.00;;
18399;SDS011;9326;49.468;11.008;2022-09-04T21:20:14;5.53;;;4.93;;
18399;SDS011;9326;49.468;11.008;2022-09-04T21:22:48;5.67;;;5.17;;
18399;SDS011;9326;49.468;11.008;2022-09-04T21:25:28;5.10;;;4.70;;
18399;SDS011;9326;49.468;11.008;2022-09-04T21:27:59;5.23;;;4.83;;
18399;SDS011;9326;49.468;11.008;2022-09-04T21:30:36;5.70;;;5.20;;
18399;SDS011;9326;49.468;11.008;2022-09-04T21:33:07;5.40;;;4.90;;
18399;SDS011;9326;49.468;11.008;2022-09-04T21:35:39;5.60;;;5.10;;
18399;SDS011;9326;49.468;11.008;2022-09-04T21:38:12;5.33;;;4.93;;
18399;SDS011;9326;49.468;11.008;2022-09-04T21:43:33;6.77;;;4.70;;
18399;SDS011;9326;49.468;11.008;2022-09-04T21:46:09;5.00;;;4.50;;
18399;SDS011;9326;49.468;11.008;2022-09-04T21:48:51;6.03;;;5.00;;
18399;SDS011;9326;49.468;11.008;2022-09-04T21:51:31;5.10;;;4.63;;
18399;SDS011;9326;49.468;11.008;2022-09-04T21:54:14;6.83;;;4.60;;
18399;SDS011;9326;49.468;11.008;2022-09-04T21:56:50;4.73;;;4.20;;
18399;SDS011;9326;49.468;11.008;2022-09-04T22:02:07;5.43;;;4.93;;
18399;SDS011;9326;49.468;11.008;2022-09-04T22:04:42;5.27;;;4.70;;